Terminal Aerodrome Forecast
Issued by NWS Dallas/Fort Worth, TX

Home | Current Version | Previous Version | Text Only | Print | Product List | Glossary On
Versions: 1 2 3 4 5 6 7 8 9 10 11 12 13 14 15 16 17 18 19 20 21 22 23 24 25 26 27 28
000
FTUS44 KFWD 272335
TAFDFW
TAF
KDFW 272335Z 2800/2906 18019KT P6SM SCT035
     FM280800 23010KT P6SM SCT035
     FM281100 34011KT P6SM VCTS BKN020CB
     FM281300 34013KT P6SM BKN015
     FM281800 36011KT P6SM BKN025
     FM282000 01010KT P6SM BKN045=

USA.gov is the U.S. government's official web portal to all federal, state and local government web resources and services.